Pascola, Missouri
Current Conditions -  °F | °C
As of 1:53 AM on Friday 31 Oct 2014 (Local Time) from KHKA Reporting Station
Clear Clear  
Wind Chill: 11°   Ceiling: Unl
Heat Index: 11°   Visibility: 10mi
Dew Point:   Wind: 7mph
Humidity: 89%   Direction: 10°N
Pressure: 30"   Gusts: NA
Location:  36.27°N, 89.83°W
Report Text: KHKA 310653Z AUTO 01006KT 10SM CLR 11/09 A3000 RMK AO2 SLP156 T01060089
Loading
Personal Weather Stations






























Interactive Weather Map
Tropical Storm Tracking
New forecast layout! Learn more

10-Day Weather Forecast

Advertisements
Track Severe Weather on mobile